Time;durP1;ratioP1;P1;durP2;ratioP2;P2;SDS_P1;SDS_P2;PMS_P1;PMS_P2;Temp;Humidity;BMP_temperature;BMP_pressure;BME280_temperature;BME280_humidity;BME280_pressure;Samples;Min_cycle;Max_cycle;Signal;HPM_P1;HPM_P2
2021/07/20 00:01:32;;;;;;;6.85;3.58;;;;;22.00;102046.00;;;;5073200;28;20199;-78
2021/07/20 00:03:59;;;;;;;5.55;3.83;;;;;21.90;102041.00;;;;5088777;28;20198;-78
2021/07/20 00:06:26;;;;;;;5.95;3.70;;;;;21.90;102041.00;;;;5072688;28;20589;-77
2021/07/20 00:08:53;;;;;;;8.10;4.50;;;;;21.90;102048.00;;;;5077220;28;20612;-78
2021/07/20 00:11:22;;;;;;;7.07;4.10;;;;;21.80;102044.00;;;;5074558;28;21228;-77
2021/07/20 00:13:49;;;;;;;6.50;4.57;;;;;21.80;102048.00;;;;5083663;28;20222;-78
2021/07/20 00:16:17;;;;;;;6.90;4.13;;;;;21.80;102054.00;;;;5072137;28;20214;-78
2021/07/20 00:18:44;;;;;;;5.78;3.95;;;;;21.80;102043.00;;;;5070915;28;20195;-78
2021/07/20 00:21:11;;;;;;;7.85;4.30;;;;;21.80;102046.00;;;;5084368;28;20262;-78
2021/07/20 00:23:38;;;;;;;6.18;3.70;;;;;21.70;102046.00;;;;5088356;28;20211;-77
2021/07/20 00:26:08;;;;;;;5.63;3.63;;;;;21.70;102043.00;;;;5079285;28;20194;-77
2021/07/20 00:28:38;;;;;;;8.38;4.25;;;;;21.70;102051.00;;;;5083994;28;20228;-78
2021/07/20 00:31:05;;;;;;;7.55;4.10;;;;;21.70;102049.00;;;;5084591;28;20202;-78
2021/07/20 00:33:32;;;;;;;7.55;4.07;;;;;21.60;102046.00;;;;5082535;28;20198;-78
2021/07/20 00:36:00;;;;;;;5.93;3.25;;;;;21.60;102041.00;;;;5070807;28;20726;-78
2021/07/20 00:38:27;;;;;;;7.30;4.00;;;;;21.60;102039.00;;;;5071208;28;20203;-78
2021/07/20 00:40:54;;;;;;;6.55;3.97;;;;;21.50;102042.00;;;;5076744;28;20201;-78
2021/07/20 00:43:21;;;;;;;8.30;4.47;;;;;21.50;102044.00;;;;5087264;28;20191;-78
2021/07/20 00:45:50;;;;;;;6.72;3.80;;;;;21.40;102042.00;;;;5070452;28;20207;-78
2021/07/20 00:48:18;;;;;;;6.85;3.63;;;;;21.40;102040.00;;;;5087611;28;20192;-78
2021/07/20 00:50:47;;;;;;;6.40;4.25;;;;;21.40;102039.00;;;;5069822;28;20216;-78
2021/07/20 00:53:16;;;;;;;6.32;4.28;;;;;21.40;102040.00;;;;5079175;28;20382;-78
2021/07/20 00:55:44;;;;;;;6.85;3.95;;;;;21.40;102036.00;;;;5083138;28;20234;-78
2021/07/20 00:58:12;;;;;;;7.80;4.15;;;;;21.30;102037.00;;;;5070550;28;20199;-78
2021/07/20 01:00:40;;;;;;;8.60;4.15;;;;;21.30;102036.00;;;;5072413;28;20214;-78
2021/07/20 01:03:09;;;;;;;6.00;3.83;;;;;21.30;102038.00;;;;5070355;28;20777;-78
2021/07/20 01:05:37;;;;;;;8.68;4.15;;;;;21.30;102034.00;;;;5069877;28;20206;-77
2021/07/20 01:08:05;;;;;;;6.47;3.70;;;;;21.20;102033.00;;;;5069961;28;20264;-78
2021/07/20 01:10:35;;;;;;;5.47;3.88;;;;;21.20;102034.00;;;;5077752;28;20281;-78
2021/07/20 01:13:02;;;;;;;8.73;4.15;;;;;21.20;102029.00;;;;5072414;28;20945;-78
2021/07/20 01:15:29;;;;;;;7.85;3.80;;;;;21.20;102025.00;;;;5069426;28;20222;-78
2021/07/20 01:17:58;;;;;;;6.88;3.92;;;;;21.10;102021.00;;;;5069778;28;20195;-78
2021/07/20 01:20:30;;;;;;;7.40;4.10;;;;;21.10;102014.00;;;;5070422;28;20202;-77
2021/07/20 01:23:05;;;;;;;9.43;4.38;;;;;21.10;102015.00;;;;5069859;28;20221;-77
2021/07/20 01:25:34;;;;;;;7.30;4.10;;;;;21.00;102018.00;;;;5071593;28;20618;-77
2021/07/20 01:28:03;;;;;;;9.35;4.55;;;;;21.00;102013.00;;;;5077669;28;20260;-77
2021/07/20 01:30:33;;;;;;;6.47;4.10;;;;;21.00;102016.00;;;;5075186;28;20230;-77
2021/07/20 01:33:02;;;;;;;8.30;4.55;;;;;21.00;102011.00;;;;5069560;28;20234;-77
2021/07/20 01:35:31;;;;;;;7.82;4.55;;;;;21.00;102012.00;;;;5069094;28;20704;-77
2021/07/20 01:37:59;;;;;;;9.73;5.05;;;;;21.00;102008.00;;;;5069256;28;20205;-77
2021/07/20 01:40:28;;;;;;;7.63;4.28;;;;;20.90;102012.00;;;;5070116;28;20206;-77
2021/07/20 01:42:58;;;;;;;7.85;4.32;;;;;20.90;102012.00;;;;5077035;28;20249;-78
2021/07/20 01:45:29;;;;;;;8.77;5.40;;;;;20.90;102014.00;;;;5083542;28;20190;-77
2021/07/20 01:47:59;;;;;;;6.93;4.97;;;;;20.90;102017.00;;;;5086145;28;20194;-77
2021/07/20 01:50:27;;;;;;;9.02;4.85;;;;;20.80;102011.00;;;;5069618;28;20252;-77
2021/07/20 01:52:55;;;;;;;7.40;4.72;;;;;20.80;102015.00;;;;5068182;28;20253;-77
2021/07/20 01:55:26;;;;;;;10.05;5.22;;;;;20.80;102012.00;;;;5070741;28;20222;-77
2021/07/20 01:57:53;;;;;;;9.30;5.47;;;;;20.80;102021.00;;;;5089169;28;20195;-77
2021/07/20 02:00:24;;;;;;;6.90;4.43;;;;;20.80;102011.00;;;;5079428;28;20211;-77
2021/07/20 02:03:12;;;;;;;5.75;4.38;;;;;20.70;102020.00;;;;5081233;28;20187;-77
2021/07/20 02:08:28;;;;;;;7.53;4.47;;;;;20.70;102020.00;;;;5068608;28;20287;-77
2021/07/20 02:10:58;;;;;;;6.60;4.22;;;;;20.70;102023.00;;;;5074082;28;20205;-77
2021/07/20 02:13:27;;;;;;;7.20;4.47;;;;;20.70;102021.00;;;;5087789;28;20247;-77
2021/07/20 02:15:57;;;;;;;8.63;4.43;;;;;20.70;102021.00;;;;5087772;28;20232;-77
2021/07/20 02:18:29;;;;;;;8.10;4.95;;;;;20.60;102022.00;;;;5083806;28;20187;-77
2021/07/20 02:21:00;;;;;;;7.53;4.70;;;;;20.70;102014.00;;;;5069236;28;20195;-77
2021/07/20 02:23:32;;;;;;;8.27;4.22;;;;;20.60;102018.00;;;;5078685;28;20222;-77
2021/07/20 02:26:01;;;;;;;7.03;4.15;;;;;20.60;102020.00;;;;5081604;28;20293;-77
2021/07/20 02:28:29;;;;;;;9.45;4.78;;;;;20.60;102024.00;;;;5080144;28;20190;-77
2021/07/20 02:31:00;;;;;;;8.15;4.57;;;;;20.60;102018.00;;;;5088294;28;20198;-77
2021/07/20 02:33:28;;;;;;;8.52;4.95;;;;;20.60;102024.00;;;;5080775;28;20235;-77
2021/07/20 02:35:56;;;;;;;6.63;4.20;;;;;20.60;102025.00;;;;5068457;28;20228;-77
2021/07/20 02:38:23;;;;;;;9.63;5.22;;;;;20.50;102016.00;;;;5081574;28;20233;-77
2021/07/20 02:40:52;;;;;;;8.52;5.40;;;;;20.50;102023.00;;;;5067670;28;20206;-77
2021/07/20 02:43:21;;;;;;;9.75;4.93;;;;;20.50;102027.00;;;;5081473;28;20194;-77
2021/07/20 02:45:49;;;;;;;6.97;4.05;;;;;20.50;102029.00;;;;5070415;28;20203;-77
2021/07/20 02:48:19;;;;;;;7.00;4.50;;;;;20.40;102027.00;;;;5068297;28;20210;-77
2021/07/20 02:50:47;;;;;;;12.10;4.70;;;;;20.40;102029.00;;;;5068248;28;20563;-77
2021/07/20 02:53:16;;;;;;;7.65;3.95;;;;;20.40;102028.00;;;;5072247;28;20273;-77
2021/07/20 02:55:44;;;;;;;7.00;4.25;;;;;20.40;102028.00;;;;5069481;28;20226;-77
2021/07/20 02:58:12;;;;;;;9.07;5.25;;;;;20.40;102025.00;;;;5075097;28;20194;-77
2021/07/20 03:00:40;;;;;;;6.78;4.32;;;;;20.40;102028.00;;;;5097868;28;20194;-77
2021/07/20 03:03:10;;;;;;;6.97;4.32;;;;;20.30;102033.00;;;;5087785;28;20199;-77
2021/07/20 03:05:41;;;;;;;5.93;3.92;;;;;20.30;102033.00;;;;5074651;28;20202;-77
2021/07/20 03:08:09;;;;;;;8.43;5.30;;;;;20.30;102035.00;;;;5075280;28;20575;-77
2021/07/20 03:10:38;;;;;;;7.95;4.88;;;;;20.30;102038.00;;;;5090528;28;20198;-78
2021/07/20 03:13:09;;;;;;;7.72;3.85;;;;;20.20;102039.00;;;;5077776;28;20194;-78
2021/07/20 03:15:39;;;;;;;9.75;4.85;;;;;20.20;102037.00;;;;5074653;28;20224;-77
2021/07/20 03:18:08;;;;;;;7.15;4.35;;;;;20.20;102034.00;;;;5074998;28;20563;-77
2021/07/20 03:20:39;;;;;;;9.77;4.38;;;;;20.20;102025.00;;;;5075499;28;20575;-78
2021/07/20 03:23:09;;;;;;;6.20;3.97;;;;;20.20;102033.00;;;;5074509;28;20194;-77
2021/07/20 03:25:36;;;;;;;8.05;4.88;;;;;20.20;102036.00;;;;5080637;28;20206;-77
2021/07/20 03:28:05;;;;;;;7.60;4.43;;;;;20.10;102039.00;;;;5075433;28;20213;-78
2021/07/20 03:30:34;;;;;;;9.00;4.50;;;;;20.10;102036.00;;;;5103972;28;20202;-78
2021/07/20 03:33:03;;;;;;;8.82;4.60;;;;;20.10;102037.00;;;;5075312;28;20199;-78
2021/07/20 03:35:32;;;;;;;6.03;4.03;;;;;20.10;102042.00;;;;5077833;28;20229;-77
2021/07/20 03:38:00;;;;;;;7.22;4.05;;;;;20.10;102035.00;;;;5092054;28;20194;-77
2021/07/20 03:40:30;;;;;;;7.93;4.22;;;;;20.00;102033.00;;;;5079163;28;20194;-77
2021/07/20 03:42:58;;;;;;;6.75;3.80;;;;;20.00;102030.00;;;;5088790;28;20656;-77
2021/07/20 03:45:27;;;;;;;6.35;4.05;;;;;20.00;102031.00;;;;5081062;28;20225;-77
2021/07/20 03:47:56;;;;;;;7.00;4.00;;;;;20.00;102024.00;;;;5073957;28;20206;-78
2021/07/20 03:50:23;;;;;;;6.50;3.58;;;;;20.00;102027.00;;;;5075251;28;20757;-78
2021/07/20 03:52:51;;;;;;;5.15;3.45;;;;;19.90;102028.00;;;;5075971;28;20198;-77
2021/07/20 03:55:19;;;;;;;7.25;4.05;;;;;19.90;102020.00;;;;5082495;28;20259;-78
2021/07/20 03:57:48;;;;;;;6.93;3.83;;;;;19.90;102020.00;;;;5093875;28;20221;-78
2021/07/20 04:00:17;;;;;;;6.10;3.80;;;;;19.90;102022.00;;;;5087075;28;20537;-78
2021/07/20 04:02:50;;;;;;;6.25;3.97;;;;;19.90;102026.00;;;;5074958;28;20210;-77
2021/07/20 04:05:19;;;;;;;8.00;4.43;;;;;19.80;102032.00;;;;5092171;28;20285;-77
2021/07/20 04:07:48;;;;;;;5.10;3.22;;;;;19.80;102034.00;;;;5090977;28;20210;-77
2021/07/20 04:10:16;;;;;;;6.90;3.53;;;;;19.80;102032.00;;;;5077561;28;20771;-77
2021/07/20 04:12:45;;;;;;;7.07;4.43;;;;;19.80;102032.00;;;;5086335;28;20210;-77
2021/07/20 04:15:16;;;;;;;6.78;4.05;;;;;19.80;102031.00;;;;5071202;28;20627;-78
2021/07/20 04:17:44;;;;;;;5.53;3.55;;;;;19.80;102031.00;;;;5082781;28;20202;-77
2021/07/20 04:20:13;;;;;;;5.95;3.60;;;;;19.80;102031.00;;;;5074902;28;20199;-77
2021/07/20 04:22:42;;;;;;;7.45;4.30;;;;;19.80;102029.00;;;;5088696;28;20217;-77
2021/07/20 04:25:11;;;;;;;6.65;3.42;;;;;19.80;102031.00;;;;5075092;28;20557;-77
2021/07/20 04:27:40;;;;;;;6.40;4.03;;;;;19.80;102025.00;;;;5070897;28;20225;-77
2021/07/20 04:30:10;;;;;;;9.13;4.03;;;;;19.80;102024.00;;;;5102592;28;20255;-77
2021/07/20 04:32:45;;;;;;;7.15;4.22;;;;;19.70;102023.00;;;;5097131;28;20293;-77
2021/07/20 04:35:14;;;;;;;5.68;3.25;;;;;19.80;102028.00;;;;5077532;28;20226;-77
2021/07/20 04:37:43;;;;;;;7.18;4.03;;;;;19.80;102027.00;;;;5079187;28;20209;-78
2021/07/20 04:40:12;;;;;;;7.38;3.72;;;;;19.80;102038.00;;;;5074734;28;20194;-78
2021/07/20 04:42:40;;;;;;;6.43;4.20;;;;;19.80;102030.00;;;;5078571;28;20190;-77
2021/07/20 04:45:10;;;;;;;7.97;4.47;;;;;19.80;102032.00;;;;5081626;28;20242;-78
2021/07/20 04:47:39;;;;;;;6.05;4.20;;;;;19.90;102025.00;;;;5075871;28;20669;-78
2021/07/20 04:50:09;;;;;;;6.32;3.58;;;;;19.90;102037.00;;;;5079691;28;20695;-79
2021/07/20 04:52:38;;;;;;;5.82;3.35;;;;;19.90;102035.00;;;;5087588;28;20197;-79
2021/07/20 04:55:08;;;;;;;5.18;3.78;;;;;19.90;102038.00;;;;5088179;28;20201;-79
2021/07/20 04:57:37;;;;;;;5.95;3.40;;;;;19.90;102033.00;;;;5085585;28;21026;-79
2021/07/20 05:00:06;;;;;;;7.80;4.30;;;;;20.00;102032.00;;;;5103223;28;20202;-78
2021/07/20 05:02:36;;;;;;;7.20;4.10;;;;;20.00;102039.00;;;;5089600;28;20203;-79
2021/07/20 05:05:08;;;;;;;5.60;3.55;;;;;20.00;102037.00;;;;5086937;28;20191;-79
2021/07/20 05:07:37;;;;;;;7.72;4.00;;;;;20.10;102045.00;;;;5080492;28;20559;-76
2021/07/20 05:10:05;;;;;;;7.18;4.25;;;;;20.10;102037.00;;;;5088635;28;20206;-77
2021/07/20 05:12:33;;;;;;;5.95;3.72;;;;;20.10;102039.00;;;;5083225;28;20198;-77
2021/07/20 05:15:01;;;;;;;6.85;4.38;;;;;20.20;102038.00;;;;5089777;28;20568;-77
2021/07/20 05:17:28;;;;;;;7.20;4.13;;;;;20.30;102030.00;;;;5085260;28;20205;-77
2021/07/20 05:19:56;;;;;;;6.72;3.83;;;;;20.30;102032.00;;;;5085782;28;20225;-78
2021/07/20 05:22:26;;;;;;;7.78;4.15;;;;;20.30;102029.00;;;;5088680;28;20205;-77
2021/07/20 05:24:53;;;;;;;8.07;4.20;;;;;20.40;102032.00;;;;5070233;28;20202;-77
2021/07/20 05:27:22;;;;;;;7.05;4.10;;;;;20.40;102039.00;;;;5080736;28;20236;-77
2021/07/20 05:29:51;;;;;;;7.88;4.15;;;;;20.50;102032.00;;;;5085477;28;20222;-77
2021/07/20 05:32:21;;;;;;;9.75;5.03;;;;;20.60;102032.00;;;;5081704;28;20194;-77
2021/07/20 05:34:49;;;;;;;6.95;4.47;;;;;20.70;102038.00;;;;5084897;28;20234;-77
2021/07/20 05:37:19;;;;;;;6.20;4.13;;;;;20.70;102034.00;;;;5085156;28;20242;-77
2021/07/20 05:39:48;;;;;;;9.05;4.20;;;;;20.80;102036.00;;;;5089011;28;20217;-77
2021/07/20 05:42:17;;;;;;;7.15;4.38;;;;;20.90;102033.00;;;;5082103;28;20201;-77
2021/07/20 05:44:45;;;;;;;6.57;4.13;;;;;21.00;102033.00;;;;5085968;28;20198;-78
2021/07/20 05:47:15;;;;;;;8.10;4.45;;;;;21.10;102040.00;;;;5087413;28;20214;-77
2021/07/20 05:49:42;;;;;;;7.75;4.60;;;;;21.20;102036.00;;;;5093056;28;20195;-77
2021/07/20 05:52:13;;;;;;;8.25;4.43;;;;;21.30;102041.00;;;;5069858;28;20202;-78
2021/07/20 05:54:41;;;;;;;5.93;3.92;;;;;21.30;102036.00;;;;5070030;28;20668;-77
2021/07/20 05:57:11;;;;;;;8.48;4.57;;;;;21.40;102038.00;;;;5083995;28;20228;-78
2021/07/20 05:59:39;;;;;;;6.78;4.20;;;;;21.50;102040.00;;;;5069483;28;20195;-78
2021/07/20 06:02:09;;;;;;;7.00;4.30;;;;;21.60;102037.00;;;;5077135;28;20198;-78
2021/07/20 06:04:37;;;;;;;7.43;4.30;;;;;21.70;102035.00;;;;5088582;28;20255;-77
2021/07/20 06:07:05;;;;;;;7.10;4.53;;;;;21.80;102052.00;;;;5078057;28;20202;-77
2021/07/20 06:09:33;;;;;;;8.73;4.50;;;;;21.90;102050.00;;;;5069158;28;20202;-76
2021/07/20 06:12:01;;;;;;;6.68;3.35;;;;;22.00;102045.00;;;;5068876;28;20199;-76
2021/07/20 06:14:32;;;;;;;6.35;3.95;;;;;22.00;102046.00;;;;5069247;28;20207;-76
2021/07/20 06:16:59;;;;;;;6.50;4.43;;;;;22.20;102047.00;;;;5068639;28;20712;-77
2021/07/20 06:19:27;;;;;;;5.07;3.50;;;;;22.20;102054.00;;;;5070971;28;20202;-78
2021/07/20 06:21:56;;;;;;;7.28;4.82;;;;;22.30;102046.00;;;;5068196;28;20239;-78
2021/07/20 06:24:23;;;;;;;7.03;4.57;;;;;22.40;102048.00;;;;5069069;28;20277;-77
2021/07/20 06:26:51;;;;;;;6.25;3.65;;;;;22.50;102060.00;;;;5068527;28;20194;-78
2021/07/20 06:29:19;;;;;;;8.65;4.57;;;;;22.50;102063.00;;;;5069602;28;20209;-78
2021/07/20 06:31:48;;;;;;;6.40;3.88;;;;;22.60;102055.00;;;;5067764;28;20207;-76
2021/07/20 06:34:16;;;;;;;6.75;3.90;;;;;22.60;102056.00;;;;5069688;28;20199;-76
2021/07/20 06:36:44;;;;;;;6.15;4.45;;;;;22.70;102056.00;;;;5068702;28;20246;-76
2021/07/20 06:39:11;;;;;;;7.18;4.25;;;;;22.80;102058.00;;;;5068535;28;20198;-77
2021/07/20 06:41:40;;;;;;;5.00;3.75;;;;;22.80;102060.00;;;;5093317;28;20643;-78
2021/07/20 06:44:07;;;;;;;5.25;3.60;;;;;22.90;102065.00;;;;5090646;28;20213;-77
2021/07/20 06:46:37;;;;;;;3.45;2.60;;;;;23.00;102067.00;;;;5088933;28;20198;-77
2021/07/20 06:49:06;;;;;;;6.35;3.47;;;;;23.00;102071.00;;;;5089264;28;20198;-77
2021/07/20 06:51:33;;;;;;;6.88;3.55;;;;;23.10;102079.00;;;;5089245;28;20214;-77
2021/07/20 06:54:01;;;;;;;6.93;4.18;;;;;23.20;102076.00;;;;5074713;28;20550;-77
2021/07/20 06:56:33;;;;;;;6.07;3.85;;;;;23.30;102072.00;;;;5095481;28;20234;-77
2021/07/20 06:59:01;;;;;;;5.18;3.65;;;;;23.40;102072.00;;;;5103133;28;20197;-77
2021/07/20 07:01:31;;;;;;;6.63;3.47;;;;;23.50;102075.00;;;;5089161;28;20205;-77
2021/07/20 07:04:04;;;;;;;5.72;3.88;;;;;23.50;102077.00;;;;5088536;28;20194;-77
2021/07/20 07:06:38;;;;;;;5.70;3.50;;;;;23.60;102077.00;;;;5085068;28;20202;-76
2021/07/20 07:09:06;;;;;;;5.18;3.35;;;;;23.70;102077.00;;;;5078860;28;20195;-76
2021/07/20 07:11:34;;;;;;;5.95;3.60;;;;;23.80;102084.00;;;;5077942;28;20360;-76
2021/07/20 07:14:03;;;;;;;6.03;3.63;;;;;23.90;102086.00;;;;5088803;28;20209;-77
2021/07/20 07:16:31;;;;;;;5.05;3.65;;;;;24.00;102086.00;;;;5072593;28;20222;-77
2021/07/20 07:18:59;;;;;;;5.70;2.97;;;;;24.10;102091.00;;;;5068150;28;20541;-77
2021/07/20 07:21:28;;;;;;;6.95;4.05;;;;;24.10;102091.00;;;;5068194;28;20215;-76
2021/07/20 07:23:57;;;;;;;5.43;3.33;;;;;24.20;102098.00;;;;5068089;28;20206;-77
2021/07/20 07:26:25;;;;;;;5.78;3.80;;;;;24.20;102093.00;;;;5068975;28;20198;-77
2021/07/20 07:28:54;;;;;;;7.63;3.72;;;;;24.20;102091.00;;;;5077975;28;20190;-77
2021/07/20 07:31:22;;;;;;;7.57;4.25;;;;;24.30;102088.00;;;;5109146;28;20676;-77
2021/07/20 07:33:51;;;;;;;6.95;3.75;;;;;24.30;102084.00;;;;5108431;28;20237;-79
2021/07/20 07:36:20;;;;;;;7.28;3.70;;;;;24.40;102087.00;;;;5081035;28;20643;-77
2021/07/20 07:38:48;;;;;;;4.93;3.83;;;;;24.40;102086.00;;;;5067059;28;20195;-78
2021/07/20 07:41:17;;;;;;;7.63;4.00;;;;;24.50;102091.00;;;;5078553;28;20199;-79
2021/07/20 07:43:45;;;;;;;6.70;4.13;;;;;24.60;102092.00;;;;5088693;28;20225;-79
2021/07/20 07:46:14;;;;;;;7.85;4.75;;;;;24.60;102085.00;;;;5073086;28;20735;-78
2021/07/20 07:48:42;;;;;;;6.45;4.30;;;;;24.70;102082.00;;;;5071551;28;20206;-79
2021/07/20 07:51:10;;;;;;;7.63;3.85;;;;;24.80;102084.00;;;;5073949;28;20191;-77
2021/07/20 07:53:39;;;;;;;4.75;3.75;;;;;24.90;102087.00;;;;5076105;28;20294;-78
2021/07/20 07:56:07;;;;;;;5.65;4.05;;;;;24.90;102086.00;;;;5083782;28;20700;-77
2021/07/20 07:58:39;;;;;;;8.85;4.40;;;;;25.00;102089.00;;;;5084551;28;20222;-78
2021/07/20 08:01:08;;;;;;;8.10;4.28;;;;;25.10;102089.00;;;;5091084;28;20581;-79
2021/07/20 08:03:39;;;;;;;7.25;3.95;;;;;25.10;102092.00;;;;5072001;28;20680;-79
2021/07/20 08:06:08;;;;;;;4.80;3.67;;;;;25.20;102101.00;;;;5075030;28;20229;-79
2021/07/20 08:08:37;;;;;;;5.60;3.83;;;;;25.30;102098.00;;;;5083691;28;20202;-78
2021/07/20 08:11:06;;;;;;;7.00;4.65;;;;;25.30;102096.00;;;;5082568;28;20199;-80
2021/07/20 08:13:36;;;;;;;5.97;4.10;;;;;25.40;102098.00;;;;5080498;28;20204;-78
2021/07/20 08:16:06;;;;;;;6.03;4.22;;;;;25.50;102086.00;;;;5071917;28;20219;-78
2021/07/20 08:18:34;;;;;;;6.10;3.65;;;;;25.60;102090.00;;;;5079761;28;20202;-78
2021/07/20 08:21:05;;;;;;;6.90;4.07;;;;;25.70;102090.00;;;;5071513;28;20195;-78
2021/07/20 08:23:33;;;;;;;6.40;4.28;;;;;25.80;102095.00;;;;5077592;28;20205;-79
2021/07/20 08:26:06;;;;;;;6.40;3.80;;;;;25.80;102095.00;;;;5077157;28;20195;-79
2021/07/20 08:28:39;;;;;;;7.15;3.88;;;;;25.90;102092.00;;;;5079427;28;20197;-78
2021/07/20 08:31:09;;;;;;;4.95;3.10;;;;;26.00;102095.00;;;;5075329;28;20755;-79
2021/07/20 08:33:38;;;;;;;5.10;3.60;;;;;26.10;102090.00;;;;5084751;28;20209;-78
2021/07/20 08:36:10;;;;;;;6.57;3.80;;;;;26.10;102092.00;;;;5075325;28;20242;-78
2021/07/20 08:38:38;;;;;;;7.05;3.28;;;;;26.30;102097.00;;;;5085445;28;20285;-79
2021/07/20 08:41:18;;;;;;;5.88;3.35;;;;;26.40;102098.00;;;;5070336;28;20197;-79
2021/07/20 08:43:58;;;;;;;6.25;4.05;;;;;26.50;102101.00;;;;5075627;28;20715;-79
2021/07/20 08:46:41;;;;;;;5.90;3.63;;;;;26.50;102101.00;;;;5070764;28;20214;-78
2021/07/20 08:49:26;;;;;;;5.45;3.42;;;;;26.70;102106.00;;;;5071940;28;20194;-80
2021/07/20 08:52:00;;;;;;;6.22;3.55;;;;;26.80;102092.00;;;;5074775;28;20198;-80
2021/07/20 08:54:34;;;;;;;5.53;3.70;;;;;26.90;102097.00;;;;5080758;28;20195;-78
2021/07/20 08:57:04;;;;;;;6.25;2.90;;;;;27.00;102097.00;;;;5070529;28;20700;-79
2021/07/20 08:59:38;;;;;;;5.63;3.63;;;;;27.10;102112.00;;;;5072752;28;20202;-79
2021/07/20 09:02:25;;;;;;;4.82;3.30;;;;;27.10;102108.00;;;;5070395;28;20233;-79
2021/07/20 09:04:59;;;;;;;4.63;3.58;;;;;27.30;102112.00;;;;5081149;28;20566;-79
2021/07/20 09:07:35;;;;;;;4.50;3.00;;;;;27.30;102110.00;;;;5083988;28;20198;-78
2021/07/20 09:10:05;;;;;;;5.47;3.65;;;;;27.40;102110.00;;;;5089128;28;20201;-79
2021/07/20 09:12:37;;;;;;;4.80;3.10;;;;;27.50;102116.00;;;;5070962;28;20244;-80
2021/07/20 09:15:09;;;;;;;8.45;4.13;;;;;27.60;102114.00;;;;5070352;28;20202;-79
2021/07/20 09:17:50;;;;;;;7.30;4.13;;;;;27.50;102109.00;;;;5069806;28;20229;-79
2021/07/20 09:20:24;;;;;;;5.97;3.83;;;;;27.70;102119.00;;;;5069929;28;20206;-79
2021/07/20 09:22:55;;;;;;;7.38;4.13;;;;;27.80;102118.00;;;;5069185;28;20273;-79
2021/07/20 09:25:26;;;;;;;5.80;4.20;;;;;27.90;102116.00;;;;5069824;28;20195;-80
2021/07/20 09:28:01;;;;;;;5.22;3.50;;;;;27.80;102107.00;;;;5076324;28;20242;-79
2021/07/20 09:30:31;;;;;;;5.78;3.47;;;;;27.90;102113.00;;;;5070673;28;20194;-79
2021/07/20 09:33:15;;;;;;;5.72;3.80;;;;;27.90;102115.00;;;;5069578;28;20195;-80
2021/07/20 09:35:49;;;;;;;11.18;3.42;;;;;28.00;102112.00;;;;5069179;28;20258;-80
2021/07/20 09:38:30;;;;;;;6.18;3.90;;;;;28.10;102116.00;;;;5078534;28;20221;-78
2021/07/20 09:41:09;;;;;;;5.45;3.80;;;;;28.20;102110.00;;;;5070743;28;20205;-79
2021/07/20 09:43:52;;;;;;;5.60;3.83;;;;;28.30;102109.00;;;;5077022;28;20195;-80
2021/07/20 09:46:25;;;;;;;6.05;4.05;;;;;28.40;102108.00;;;;5076606;28;20195;-79
2021/07/20 09:49:00;;;;;;;5.25;3.72;;;;;28.40;102114.00;;;;5073146;28;20202;-80
2021/07/20 09:51:53;;;;;;;7.60;3.95;;;;;28.40;102111.00;;;;5072675;28;20197;-80
2021/07/20 09:54:46;;;;;;;4.25;3.42;;;;;28.50;102115.00;;;;5072207;28;20661;-78
2021/07/20 09:57:23;;;;;;;4.40;3.55;;;;;28.60;102109.00;;;;5069091;28;20222;-78
2021/07/20 10:00:13;;;;;;;4.80;3.50;;;;;28.60;102111.00;;;;5078171;28;20201;-78
2021/07/20 10:02:53;;;;;;;6.00;3.80;;;;;28.70;102102.00;;;;5084931;28;20187;-78
2021/07/20 10:05:30;;;;;;;4.20;3.38;;;;;28.80;102110.00;;;;5070081;28;20202;-79
2021/07/20 10:08:01;;;;;;;5.72;3.40;;;;;28.90;102107.00;;;;5075217;28;20203;-78
2021/07/20 10:10:33;;;;;;;4.97;3.35;;;;;28.90;102112.00;;;;5084441;28;20202;-78
2021/07/20 10:13:08;;;;;;;4.60;3.10;;;;;28.90;102115.00;;;;5089569;28;20214;-78
2021/07/20 10:15:51;;;;;;;4.38;3.58;;;;;28.90;102106.00;;;;5098027;28;20576;-78
2021/07/20 10:18:23;;;;;;;5.53;3.10;;;;;29.00;102103.00;;;;5090126;28;20218;-79
2021/07/20 10:20:57;;;;;;;4.55;3.55;;;;;29.00;102102.00;;;;5081743;28;20209;-76
2021/07/20 10:23:32;;;;;;;6.30;3.60;;;;;29.00;102103.00;;;;5072654;28;20194;-76
2021/07/20 10:26:05;;;;;;;4.82;3.17;;;;;29.10;102103.00;;;;5084752;28;20193;-76
2021/07/20 10:28:40;;;;;;;6.30;3.92;;;;;29.10;102104.00;;;;5078126;28;20623;-76
2021/07/20 10:31:10;;;;;;;4.32;3.35;;;;;29.20;102113.00;;;;5074637;28;20213;-77
2021/07/20 10:33:44;;;;;;;5.85;3.72;;;;;29.10;102111.00;;;;5078510;28;20639;-76
2021/07/20 10:36:19;;;;;;;4.97;3.72;;;;;29.20;102117.00;;;;5081162;28;20234;-79
2021/07/20 10:38:51;;;;;;;5.40;3.60;;;;;29.20;102103.00;;;;5067737;28;20214;-78
2021/07/20 10:41:24;;;;;;;5.28;3.47;;;;;29.20;102104.00;;;;5079728;28;20282;-78
2021/07/20 10:44:05;;;;;;;5.72;3.47;;;;;29.30;102102.00;;;;5081538;28;20289;-79
2021/07/20 10:46:35;;;;;;;6.45;3.72;;;;;29.40;102103.00;;;;5077812;28;20198;-78
2021/07/20 10:49:12;;;;;;;5.63;3.53;;;;;29.40;102103.00;;;;5081947;28;20210;-78
2021/07/20 10:51:44;;;;;;;5.68;3.67;;;;;29.40;102103.00;;;;5079221;28;20193;-78
2021/07/20 10:54:21;;;;;;;7.20;3.60;;;;;29.40;102093.00;;;;5083339;28;20206;-78
2021/07/20 10:56:55;;;;;;;5.72;3.08;;;;;29.40;102094.00;;;;5082995;28;20195;-79
2021/07/20 10:59:46;;;;;;;6.47;4.20;;;;;29.40;102095.00;;;;5068587;28;20729;-79
2021/07/20 11:02:25;;;;;;;5.78;3.70;;;;;29.50;102090.00;;;;5076379;28;20195;-77
2021/07/20 11:04:56;;;;;;;7.43;4.15;;;;;29.60;102092.00;;;;5067156;28;20205;-79
2021/07/20 11:07:28;;;;;;;8.15;3.85;;;;;29.50;102088.00;;;;5077632;28;20206;-80
2021/07/20 11:09:59;;;;;;;6.05;3.97;;;;;29.50;102087.00;;;;5086151;28;20202;-79
2021/07/20 11:12:30;;;;;;;5.78;3.80;;;;;29.50;102081.00;;;;5079184;28;20207;-80
2021/07/20 11:14:58;;;;;;;5.97;4.07;;;;;29.50;102080.00;;;;5070893;28;20986;-79
2021/07/20 11:17:27;;;;;;;4.68;3.72;;;;;29.50;102088.00;;;;5087151;28;20249;-80
2021/07/20 11:19:58;;;;;;;5.70;4.07;;;;;29.50;102079.00;;;;5094124;28;20196;-78
2021/07/20 11:22:27;;;;;;;7.15;4.20;;;;;29.50;102077.00;;;;5076345;28;20198;-78
2021/07/20 11:24:55;;;;;;;7.60;4.85;;;;;29.60;102079.00;;;;5087230;28;20202;-79
2021/07/20 11:27:23;;;;;;;5.55;4.05;;;;;29.60;102080.00;;;;5074157;28;20210;-79
2021/07/20 11:29:52;;;;;;;8.85;4.03;;;;;29.70;102081.00;;;;5070888;28;20210;-80
2021/07/20 11:32:23;;;;;;;9.70;3.75;;;;;29.70;102086.00;;;;5071998;28;20290;-79
2021/07/20 11:34:56;;;;;;;4.28;3.40;;;;;29.70;102076.00;;;;5081509;28;20210;-79
2021/07/20 11:37:32;;;;;;;5.20;4.05;;;;;29.70;102076.00;;;;5082397;28;20696;-78
2021/07/20 11:40:08;;;;;;;5.47;3.50;;;;;29.70;102074.00;;;;5082354;28;20205;-79
2021/07/20 11:42:45;;;;;;;5.35;3.60;;;;;29.70;102081.00;;;;5079874;28;20206;-80
2021/07/20 11:45:14;;;;;;;5.35;4.07;;;;;29.70;102071.00;;;;5076675;28;20225;-79
2021/07/20 11:47:49;;;;;;;8.50;4.25;;;;;29.70;102073.00;;;;5091657;28;20251;-79
2021/07/20 11:50:26;;;;;;;6.53;4.18;;;;;29.70;102064.00;;;;5085263;28;20202;-79
2021/07/20 11:53:02;;;;;;;5.60;3.70;;;;;29.80;102077.00;;;;5098247;28;20197;-80
2021/07/20 11:55:35;;;;;;;5.95;4.05;;;;;29.80;102080.00;;;;5098119;28;20197;-79
2021/07/20 11:58:33;;;;;;;7.18;4.82;;;;;29.70;102078.00;;;;5086224;28;20225;-79
2021/07/20 12:01:46;;;;;;;5.18;4.35;;;;;29.70;102075.00;;;;5070387;28;20197;-79
2021/07/20 12:04:35;;;;;;;5.53;4.18;;;;;29.70;102064.00;;;;5085764;28;20195;-78
2021/07/20 12:07:06;;;;;;;6.53;3.75;;;;;29.80;102062.00;;;;5071001;28;20199;-78
2021/07/20 12:10:00;;;;;;;7.25;4.43;;;;;29.70;102063.00;;;;5091024;28;20194;-79
2021/07/20 12:12:46;;;;;;;6.18;4.43;;;;;29.70;102058.00;;;;5092546;28;20292;-78
2021/07/20 12:15:14;;;;;;;5.95;3.95;;;;;29.70;102059.00;;;;5095802;28;20201;-79
2021/07/20 12:17:43;;;;;;;6.05;4.35;;;;;29.70;102060.00;;;;5070788;28;20230;-78
2021/07/20 12:20:13;;;;;;;6.63;4.63;;;;;29.70;102057.00;;;;5082711;28;20201;-78
2021/07/20 12:22:40;;;;;;;7.18;4.30;;;;;29.70;102061.00;;;;5070815;28;20253;-79
2021/07/20 12:25:11;;;;;;;10.30;5.20;;;;;29.60;102056.00;;;;5085088;28;20205;-79
2021/07/20 12:27:39;;;;;;;6.53;4.60;;;;;29.70;102054.00;;;;5074549;28;20210;-78
2021/07/20 12:30:09;;;;;;;7.40;4.97;;;;;29.70;102048.00;;;;5071522;28;20202;-77